Mendip, United Kingdom
Current Conditions -  °F | °C
As of 3:50 PM on Tuesday 21 Oct 2014 (Local Time) from EGGD Reporting Station
Rain Showers Rain Showers  
Wind Chill: 37°   Ceiling: Unl
Heat Index: 46°   Visibility: 6mi
Dew Point: 39°   Wind: 30mph
Humidity: 76%   Direction: 290°WNW
Pressure: 29.94"   Gusts: 45mph
Location:  51.24°N, 2.63°W
Report Text: EGGD 211450Z 29026G39KT 9999 6000W +SHRA FEW014 SCT029CB SCT039 08/04 Q1014 RESHRA
Loading
Personal Weather Stations






























Interactive Weather Map
Tropical Storm Tracking
New forecast layout! Learn more

10-Day Weather Forecast

Advertisements
Track Severe Weather on mobile